Terminal Aerodrome Forecast
Issued by NWS Sioux Falls, SD

Home | Current Version | Previous Version | Text Only | Print | Product List | Glossary On
Versions: 1 2 3 4 5 6 7 8 9 10 11 12
000
FTUS43 KFSD 011127
TAFFSD
TAF
KFSD 011127Z 0112/0212 03012KT P6SM -RA OVC040
     FM011400 02013KT P6SM OVC045
     FM011800 02013KT P6SM BKN040
     FM020030 36004KT P6SM SKC=

USA.gov is the U.S. government's official web portal to all federal, state and local government web resources and services.